createdAt,value
2017-11-09T00:00:53.402Z,70.70
2017-11-09T00:03:21.688Z,70.60
2017-11-09T00:05:54.910Z,70.50
2017-11-09T00:08:23.607Z,70.60
2017-11-09T00:10:51.351Z,70.50
2017-11-09T00:13:18.884Z,70.60
2017-11-09T00:15:46.377Z,70.50
2017-11-09T00:18:13.932Z,70.60
2017-11-09T00:20:41.453Z,70.10
2017-11-09T00:23:08.986Z,70.10
2017-11-09T00:25:36.479Z,69.80
2017-11-09T00:28:04.762Z,69.70
2017-11-09T00:30:32.248Z,69.70
2017-11-09T00:32:59.762Z,69.80
2017-11-09T00:35:28.018Z,69.80
2017-11-09T00:37:56.318Z,70.00
2017-11-09T00:40:24.586Z,70.10
2017-11-09T00:42:52.089Z,70.10
2017-11-09T00:45:19.592Z,70.00
2017-11-09T00:47:47.087Z,70.50
2017-11-09T00:50:14.607Z,70.10
2017-11-09T00:52:42.092Z,70.20
2017-11-09T00:55:09.602Z,70.40
2017-11-09T00:57:37.109Z,70.50
2017-11-09T01:00:04.635Z,70.50
2017-11-09T01:02:32.152Z,70.60
2017-11-09T01:04:59.656Z,70.80
2017-11-09T01:07:27.179Z,70.50
2017-11-09T01:09:54.705Z,70.30
2017-11-09T01:12:22.201Z,70.50
2017-11-09T01:14:49.695Z,70.40
2017-11-09T01:17:17.218Z,70.30
2017-11-09T01:19:44.761Z,70.50
2017-11-09T01:22:12.309Z,70.40
2017-11-09T01:24:39.981Z,70.40
2017-11-09T01:27:07.519Z,70.50
2017-11-09T01:29:35.781Z,70.20
2017-11-09T01:32:03.290Z,70.30
2017-11-09T01:34:30.798Z,70.10
2017-11-09T01:36:58.294Z,70.10
2017-11-09T01:39:25.797Z,70.20
2017-11-09T01:41:53.308Z,70.50
2017-11-09T01:44:20.878Z,70.80
2017-11-09T01:46:48.395Z,70.60
2017-11-09T01:49:16.694Z,70.80
2017-11-09T01:51:44.229Z,70.70
2017-11-09T01:54:11.724Z,70.90
2017-11-09T01:56:39.226Z,71.00
2017-11-09T01:59:06.721Z,70.80
2017-11-09T02:01:34.203Z,71.00
2017-11-09T02:04:01.714Z,71.00
2017-11-09T02:06:29.217Z,71.00
2017-11-09T02:08:56.737Z,71.00
2017-11-09T02:11:24.231Z,70.90
2017-11-09T02:13:52.887Z,70.90
2017-11-09T02:16:20.395Z,70.90
2017-11-09T02:18:47.924Z,70.80
2017-11-09T02:21:15.435Z,70.70
2017-11-09T02:23:42.903Z,70.90
2017-11-09T02:26:10.409Z,71.00
2017-11-09T02:28:37.973Z,71.10
2017-11-09T02:31:05.706Z,71.10
2017-11-09T02:33:34.119Z,70.60
2017-11-09T02:36:01.650Z,70.50
2017-11-09T02:38:29.933Z,70.70
2017-11-09T02:40:58.208Z,70.60
2017-11-09T02:43:26.791Z,70.50
2017-11-09T02:45:55.070Z,70.30
2017-11-09T02:48:23.342Z,70.20
2017-11-09T02:50:52.762Z,70.30
2017-11-09T02:53:21.024Z,70.30
2017-11-09T02:55:48.525Z,70.30
2017-11-09T02:58:16.005Z,70.10
2017-11-09T03:00:43.517Z,70.10
2017-11-09T03:03:12.161Z,70.20
2017-11-09T03:05:39.660Z,70.40
2017-11-09T03:08:07.977Z,70.40
2017-11-09T03:10:35.480Z,70.20
2017-11-09T03:13:03.754Z,70.60
2017-11-09T03:15:32.035Z,70.50
2017-11-09T03:17:59.538Z,70.50
2017-11-09T03:20:27.051Z,70.50
2017-11-09T03:22:55.318Z,70.40
2017-11-09T03:25:23.635Z,70.30
2017-11-09T03:27:51.123Z,70.20
2017-11-09T03:30:18.641Z,70.30
2017-11-09T03:32:46.146Z,70.50
2017-11-09T03:35:13.659Z,70.40
2017-11-09T03:37:41.190Z,70.30
2017-11-09T03:40:09.461Z,70.70
2017-11-09T03:42:36.987Z,70.60
2017-11-09T03:45:04.483Z,70.70
2017-11-09T03:47:31.996Z,70.80
2017-11-09T03:49:59.501Z,70.70
2017-11-09T03:52:27.013Z,70.50
2017-11-09T03:54:54.508Z,70.40
2017-11-09T03:57:21.978Z,70.50
2017-11-09T03:59:49.583Z,70.50
2017-11-09T04:02:17.084Z,70.40
2017-11-09T04:04:44.603Z,70.10
2017-11-09T04:07:12.093Z,70.20
2017-11-09T04:09:39.604Z,70.40
2017-11-09T04:12:07.095Z,70.40
2017-11-09T04:14:34.579Z,70.10
2017-11-09T04:17:02.083Z,71.10
2017-11-09T04:19:29.592Z,70.60
2017-11-09T04:21:57.108Z,70.80
2017-11-09T04:24:24.607Z,70.50
2017-11-09T04:26:52.126Z,70.60
2017-11-09T04:29:19.617Z,70.70
2017-11-09T04:31:47.127Z,70.50
2017-11-09T04:34:14.634Z,70.30
2017-11-09T04:36:42.136Z,70.30
2017-11-09T04:39:09.652Z,70.80
2017-11-09T04:41:37.240Z,70.70
2017-11-09T04:44:05.506Z,70.60
2017-11-09T04:46:33.006Z,70.60
2017-11-09T04:49:00.503Z,70.40
2017-11-09T04:51:28.417Z,70.50
2017-11-09T04:53:55.941Z,70.60
2017-11-09T04:56:23.433Z,71.20
2017-11-09T04:58:51.716Z,70.50
2017-11-09T05:01:19.215Z,70.50
2017-11-09T05:03:46.756Z,70.50
2017-11-09T05:06:14.247Z,70.70
2017-11-09T05:08:41.859Z,70.70
2017-11-09T05:11:09.369Z,70.60
2017-11-09T05:13:36.991Z,70.50
2017-11-09T05:16:04.537Z,70.70
2017-11-09T05:18:32.046Z,70.60
2017-11-09T05:20:59.570Z,70.60
2017-11-09T05:23:27.094Z,70.10
2017-11-09T05:25:54.582Z,69.90
2017-11-09T05:28:22.117Z,69.30
2017-11-09T05:30:50.380Z,69.70
2017-11-09T05:33:17.922Z,69.70
2017-11-09T05:35:46.427Z,69.90
2017-11-09T05:38:13.933Z,69.50
2017-11-09T05:40:41.765Z,69.40
2017-11-09T05:43:09.264Z,69.30
2017-11-09T05:45:36.768Z,69.30
2017-11-09T05:48:04.284Z,69.30
2017-11-09T05:50:31.780Z,68.70
2017-11-09T05:52:59.293Z,68.90
2017-11-09T05:55:26.800Z,69.30
2017-11-09T05:57:54.286Z,69.60
2017-11-09T06:00:21.777Z,69.80
2017-11-09T06:02:49.268Z,70.00
2017-11-09T06:05:16.831Z,69.70
2017-11-09T06:07:44.358Z,69.60
2017-11-09T06:10:11.870Z,69.60
2017-11-09T06:12:40.145Z,69.10
2017-11-09T06:15:08.401Z,69.10
2017-11-09T06:17:35.921Z,69.10
2017-11-09T06:20:03.445Z,69.40
2017-11-09T06:22:30.937Z,69.10
2017-11-09T06:24:58.457Z,69.20
2017-11-09T06:27:25.958Z,69.30
2017-11-09T06:29:53.468Z,69.50
2017-11-09T06:32:21.744Z,69.20
2017-11-09T06:34:50.003Z,69.40
2017-11-09T06:37:17.641Z,69.20
2017-11-09T06:39:45.141Z,69.40
2017-11-09T06:42:13.418Z,70.40
2017-11-09T06:44:40.936Z,69.60
2017-11-09T06:47:08.420Z,69.70
2017-11-09T06:49:35.922Z,69.50
2017-11-09T06:52:03.428Z,69.30
2017-11-09T06:54:30.938Z,68.80
2017-11-09T06:56:58.453Z,68.70
2017-11-09T06:59:25.951Z,68.70
2017-11-09T07:01:53.509Z,68.60
2017-11-09T07:04:20.999Z,68.50
2017-11-09T07:06:48.525Z,68.60
2017-11-09T07:09:16.024Z,69.20
2017-11-09T07:11:43.574Z,69.10
2017-11-09T07:14:11.130Z,69.00
2017-11-09T07:16:39.559Z,69.10
2017-11-09T07:19:07.087Z,69.10
2017-11-09T07:21:35.334Z,69.40
2017-11-09T07:24:02.841Z,69.80
2017-11-09T07:26:30.339Z,69.70
2017-11-09T07:28:57.949Z,69.50
2017-11-09T07:31:25.459Z,69.40
2017-11-09T07:33:53.021Z,69.50
2017-11-09T07:36:20.567Z,69.20
2017-11-09T07:38:48.125Z,69.10
2017-11-09T07:41:15.686Z,69.30
2017-11-09T07:43:43.429Z,69.80
2017-11-09T07:46:11.126Z,69.80
2017-11-09T07:48:38.644Z,69.60
2017-11-09T07:51:06.178Z,69.60
2017-11-09T07:53:33.695Z,69.20
2017-11-09T07:56:01.202Z,68.90
2017-11-09T07:58:28.709Z,69.00
2017-11-09T08:00:56.243Z,69.30
2017-11-09T08:03:23.734Z,69.20
2017-11-09T08:05:51.244Z,69.10
2017-11-09T08:08:18.742Z,69.70
2017-11-09T08:10:47.013Z,69.50
2017-11-09T08:13:15.290Z,69.80
2017-11-09T08:15:43.565Z,69.90
2017-11-09T08:18:11.849Z,69.80
2017-11-09T08:20:39.377Z,69.80
2017-11-09T08:23:06.861Z,69.80
2017-11-09T08:25:38.222Z,69.10
2017-11-09T08:28:07.581Z,69.10
2017-11-09T08:30:41.438Z,69.20
2017-11-09T08:33:09.388Z,69.50
2017-11-09T08:35:37.670Z,69.40
2017-11-09T08:38:05.946Z,69.50
2017-11-09T08:40:34.221Z,69.80
2017-11-09T08:43:02.547Z,69.60
2017-11-09T08:45:30.102Z,69.60
2017-11-09T08:47:57.618Z,69.30
2017-11-09T08:50:25.101Z,69.50
2017-11-09T08:52:52.609Z,69.20
2017-11-09T08:55:20.085Z,69.00
2017-11-09T08:57:48.373Z,69.00
2017-11-09T09:00:16.649Z,68.70
2017-11-09T09:02:44.911Z,68.10
2017-11-09T09:05:12.596Z,68.00
2017-11-09T09:07:40.098Z,68.40
2017-11-09T09:10:07.612Z,68.30
2017-11-09T09:12:35.149Z,68.90
2017-11-09T09:15:02.714Z,67.80
2017-11-09T09:17:31.024Z,68.30
2017-11-09T09:19:58.522Z,68.20
2017-11-09T09:25:24.629Z,68.00
2017-11-09T09:27:53.576Z,67.50
2017-11-09T09:30:21.117Z,67.40
2017-11-09T09:32:54.139Z,67.80
2017-11-09T09:35:28.076Z,67.90
2017-11-09T09:38:01.789Z,68.00
2017-11-09T09:40:34.041Z,68.00
2017-11-09T09:43:01.611Z,68.00
2017-11-09T09:45:29.123Z,68.10
2017-11-09T09:47:56.646Z,68.30
2017-11-09T09:50:24.150Z,68.50
2017-11-09T09:52:51.644Z,68.60
2017-11-09T09:55:19.910Z,68.40
2017-11-09T09:57:48.228Z,68.00
2017-11-09T10:00:15.719Z,67.80
2017-11-09T10:02:44.098Z,68.10
2017-11-09T10:05:11.602Z,67.80
2017-11-09T10:07:39.098Z,67.10
2017-11-09T10:10:07.168Z,67.10
2017-11-09T10:12:34.694Z,67.20
2017-11-09T10:15:02.205Z,67.70
2017-11-09T10:17:29.710Z,68.10
2017-11-09T10:19:57.331Z,68.80
2017-11-09T10:22:24.909Z,68.80
2017-11-09T10:24:53.154Z,68.60
2017-11-09T10:27:20.657Z,68.60
2017-11-09T10:29:48.153Z,68.80
2017-11-09T10:32:15.654Z,68.70
2017-11-09T10:34:43.161Z,68.70
2017-11-09T10:37:11.363Z,69.00
2017-11-09T10:39:38.854Z,68.80
2017-11-09T10:42:06.361Z,69.00
2017-11-09T10:44:33.844Z,68.90
2017-11-09T10:47:02.136Z,68.50
2017-11-09T10:49:29.655Z,68.40
2017-11-09T10:51:57.152Z,68.20
2017-11-09T10:54:24.630Z,68.00
2017-11-09T10:56:52.901Z,68.20
2017-11-09T10:59:20.408Z,68.00
2017-11-09T11:01:48.018Z,67.40
2017-11-09T11:04:16.283Z,67.10
2017-11-09T11:06:44.683Z,67.10
2017-11-09T11:09:12.785Z,67.00
2017-11-09T11:11:40.293Z,66.90
2017-11-09T11:14:07.775Z,67.20
2017-11-09T11:16:36.055Z,67.50
2017-11-09T11:19:04.324Z,67.70
2017-11-09T11:21:31.842Z,67.70
2017-11-09T11:23:59.347Z,67.90
2017-11-09T11:26:26.878Z,67.50
2017-11-09T11:28:54.398Z,67.30
2017-11-09T11:31:21.902Z,67.20
2017-11-09T11:33:49.437Z,67.60
2017-11-09T11:36:16.942Z,67.90
2017-11-09T11:38:44.571Z,67.90
2017-11-09T11:41:12.187Z,68.00
2017-11-09T11:43:39.705Z,68.20
2017-11-09T11:46:07.243Z,68.00
2017-11-09T11:48:34.747Z,67.60
2017-11-09T11:51:02.302Z,67.80
2017-11-09T11:53:29.834Z,68.00
2017-11-09T11:55:57.373Z,67.90
2017-11-09T11:58:26.082Z,68.50
2017-11-09T12:00:54.398Z,68.40
2017-11-09T12:03:21.901Z,68.40
2017-11-09T12:05:49.463Z,68.00
2017-11-09T12:08:16.974Z,67.80
2017-11-09T12:10:44.827Z,68.00
2017-11-09T12:13:13.686Z,68.20
2017-11-09T12:15:41.277Z,68.10
2017-11-09T12:18:08.856Z,68.10
2017-11-09T12:20:36.418Z,68.40
2017-11-09T12:23:03.966Z,69.50
2017-11-09T12:25:31.956Z,69.00
2017-11-09T12:27:59.465Z,69.20
2017-11-09T12:30:26.965Z,69.40
2017-11-09T12:32:55.248Z,69.40
2017-11-09T12:35:22.843Z,69.50
2017-11-09T12:37:50.363Z,69.50
2017-11-09T12:40:17.903Z,69.60
2017-11-09T12:42:45.470Z,69.30
2017-11-09T12:45:12.986Z,69.40
2017-11-09T12:47:40.478Z,69.10
2017-11-09T12:50:08.815Z,69.00
2017-11-09T12:52:36.409Z,69.00
2017-11-09T12:55:04.742Z,69.20
2017-11-09T12:57:32.272Z,69.20
2017-11-09T12:59:59.786Z,69.50
2017-11-09T13:02:27.381Z,69.60
2017-11-09T13:04:54.881Z,69.90
2017-11-09T13:07:23.311Z,69.60
2017-11-09T13:09:51.637Z,69.50
2017-11-09T13:12:19.195Z,69.50
2017-11-09T13:14:46.756Z,69.20
2017-11-09T13:17:15.398Z,69.70
2017-11-09T13:19:43.012Z,69.60
2017-11-09T13:22:10.564Z,69.60
2017-11-09T13:24:38.132Z,69.40
2017-11-09T13:27:05.667Z,69.30
2017-11-09T13:29:33.248Z,69.30
2017-11-09T13:32:00.799Z,69.40
2017-11-09T13:34:32.097Z,69.40
2017-11-09T13:37:00.461Z,68.70
2017-11-09T13:39:27.969Z,68.60
2017-11-09T13:41:55.475Z,68.90
2017-11-09T13:44:23.105Z,69.10
2017-11-09T13:46:50.644Z,69.30
2017-11-09T13:49:18.153Z,69.40
2017-11-09T13:51:45.682Z,69.80
2017-11-09T13:54:13.180Z,69.80
2017-11-09T13:56:40.706Z,69.90
2017-11-09T13:59:08.236Z,69.70
2017-11-09T14:01:35.787Z,69.80
2017-11-09T14:04:03.303Z,70.00
2017-11-09T14:06:30.862Z,69.90
2017-11-09T14:08:58.496Z,70.30
2017-11-09T14:11:26.047Z,70.60
2017-11-09T14:13:53.549Z,70.70
2017-11-09T14:16:21.241Z,70.70
2017-11-09T14:18:48.872Z,70.50
2017-11-09T14:21:16.434Z,70.70
2017-11-09T14:23:43.951Z,70.80
2017-11-09T14:26:11.732Z,70.50
2017-11-09T14:28:39.447Z,70.40
2017-11-09T14:31:06.935Z,70.70
2017-11-09T14:33:34.482Z,71.30
2017-11-09T14:36:02.015Z,70.60
2017-11-09T14:38:31.282Z,70.80
2017-11-09T14:40:58.756Z,70.80
2017-11-09T14:43:26.257Z,71.00
2017-11-09T14:45:54.032Z,70.80
2017-11-09T14:48:21.559Z,70.50
2017-11-09T14:50:49.813Z,70.30
2017-11-09T14:53:17.347Z,70.30
2017-11-09T14:55:45.634Z,70.30
2017-11-09T14:58:13.143Z,70.30
2017-11-09T15:00:40.654Z,70.20
2017-11-09T15:03:08.261Z,70.50
2017-11-09T15:05:35.794Z,70.50
2017-11-09T15:08:03.302Z,70.30
2017-11-09T15:10:30.835Z,70.50
2017-11-09T15:12:58.322Z,70.70
2017-11-09T15:15:25.806Z,71.00
2017-11-09T15:17:53.294Z,71.10
2017-11-09T15:20:20.788Z,71.30
2017-11-09T15:22:48.281Z,71.60
2017-11-09T15:25:15.788Z,71.90
2017-11-09T15:27:43.289Z,72.00
2017-11-09T15:30:11.579Z,71.90
2017-11-09T15:32:39.105Z,71.80
2017-11-09T15:35:13.972Z,71.90
2017-11-09T15:37:41.473Z,72.00
2017-11-09T15:40:09.763Z,71.70
2017-11-09T15:42:37.311Z,71.60
2017-11-09T15:45:04.814Z,71.80
2017-11-09T15:47:32.467Z,71.90
2017-11-09T15:49:59.976Z,72.40
2017-11-09T15:52:28.221Z,72.70
2017-11-09T15:54:55.782Z,72.70
2017-11-09T15:57:24.157Z,72.80
2017-11-09T15:59:51.806Z,72.70
2017-11-09T16:02:19.339Z,72.90
2017-11-09T16:04:46.862Z,73.00
2017-11-09T16:07:18.172Z,73.20
2017-11-09T16:09:45.707Z,73.10
2017-11-09T16:12:13.218Z,73.20
2017-11-09T16:14:40.762Z,73.40
2017-11-09T16:17:08.340Z,73.70
2017-11-09T16:19:35.851Z,74.00
2017-11-09T16:22:03.377Z,74.10
2017-11-09T16:24:30.877Z,73.90
2017-11-09T16:26:58.390Z,74.00
2017-11-09T16:29:26.110Z,73.90
2017-11-09T16:31:53.625Z,74.10
2017-11-09T16:34:21.121Z,74.50
2017-11-09T16:36:48.662Z,74.60
2017-11-09T16:39:16.162Z,74.60
2017-11-09T16:41:43.705Z,74.80
2017-11-09T16:44:11.255Z,74.80
2017-11-09T16:46:38.800Z,74.90
2017-11-09T16:49:06.365Z,74.70
2017-11-09T16:51:33.922Z,74.80
2017-11-09T16:54:02.258Z,74.80
2017-11-09T16:56:29.757Z,74.80
2017-11-09T16:58:57.281Z,74.80
2017-11-09T17:01:24.781Z,74.80
2017-11-09T17:03:52.325Z,74.90
2017-11-09T17:06:19.932Z,74.90
2017-11-09T17:08:48.261Z,74.80
2017-11-09T17:11:18.501Z,74.80
2017-11-09T17:13:46.359Z,75.10
2017-11-09T17:16:13.894Z,74.90
2017-11-09T17:18:42.174Z,75.00
2017-11-09T17:21:10.455Z,75.10
2017-11-09T17:23:38.769Z,74.80
2017-11-09T17:26:06.286Z,74.80
2017-11-09T17:28:34.569Z,74.70
2017-11-09T17:31:02.905Z,74.50
2017-11-09T17:33:30.425Z,74.50
2017-11-09T17:35:57.994Z,74.50
2017-11-09T17:38:26.165Z,74.40
2017-11-09T17:40:53.724Z,74.70
2017-11-09T17:43:21.218Z,74.80
2017-11-09T17:45:48.743Z,74.60
2017-11-09T17:48:16.337Z,74.50
2017-11-09T17:50:43.894Z,74.40
2017-11-09T17:53:11.412Z,74.50
2017-11-09T17:55:39.068Z,74.70
2017-11-09T17:58:06.597Z,74.50
2017-11-09T18:00:34.088Z,74.60
2017-11-09T18:03:05.446Z,74.40
2017-11-09T18:05:32.938Z,74.40
2017-11-09T18:08:00.450Z,74.40
2017-11-09T18:10:28.725Z,74.40
2017-11-09T18:12:56.232Z,74.40
2017-11-09T18:15:23.747Z,74.50
2017-11-09T18:17:51.273Z,74.50
2017-11-09T18:20:18.775Z,74.30
2017-11-09T18:22:46.279Z,74.60
2017-11-09T18:25:13.805Z,74.50
2017-11-09T18:27:41.326Z,74.50
2017-11-09T18:30:09.681Z,74.60
2017-11-09T18:32:37.672Z,74.50
2017-11-09T18:35:05.989Z,74.50
2017-11-09T18:37:33.533Z,74.50
2017-11-09T18:40:01.822Z,74.70
2017-11-09T18:42:29.324Z,74.60
2017-11-09T18:44:56.859Z,75.20
2017-11-09T18:47:25.306Z,74.50
2017-11-09T18:49:53.615Z,74.40
2017-11-09T18:52:21.166Z,74.30
2017-11-09T18:54:48.747Z,73.90
2017-11-09T18:57:16.346Z,73.90
2017-11-09T18:59:44.671Z,74.00
2017-11-09T19:02:12.177Z,74.00
2017-11-09T19:04:39.761Z,74.20
2017-11-09T19:07:07.269Z,74.10
2017-11-09T19:09:34.834Z,74.20
2017-11-09T19:12:02.324Z,74.30
2017-11-09T19:14:29.837Z,74.20
2017-11-09T19:16:57.375Z,74.10
2017-11-09T19:19:24.881Z,74.10
2017-11-09T19:21:52.427Z,74.20
2017-11-09T19:24:20.015Z,74.20
2017-11-09T19:26:47.525Z,74.20
2017-11-09T19:29:15.053Z,74.20
2017-11-09T19:31:42.657Z,74.20
2017-11-09T19:34:10.311Z,74.50
2017-11-09T19:36:38.594Z,74.60
2017-11-09T19:39:06.173Z,74.50
2017-11-09T19:41:33.752Z,74.30
2017-11-09T19:44:01.242Z,74.30
2017-11-09T19:46:28.808Z,74.50
2017-11-09T19:48:56.370Z,74.60
2017-11-09T19:51:23.889Z,74.70
2017-11-09T19:53:51.470Z,74.70
2017-11-09T19:56:19.726Z,74.60
2017-11-09T19:58:47.258Z,74.60
2017-11-09T20:01:15.547Z,74.50
2017-11-09T20:03:43.380Z,74.50
2017-11-09T20:06:10.882Z,74.60
2017-11-09T20:08:38.354Z,74.60
2017-11-09T20:11:05.912Z,74.60
2017-11-09T20:13:33.455Z,74.50
2017-11-09T20:16:01.017Z,74.50
2017-11-09T20:18:28.524Z,74.20
2017-11-09T20:20:56.085Z,74.00
2017-11-09T20:23:23.661Z,74.20
2017-11-09T20:25:51.159Z,74.20
2017-11-09T20:28:18.665Z,73.90
2017-11-09T20:30:46.199Z,74.00
2017-11-09T20:33:16.375Z,73.70
2017-11-09T20:35:43.933Z,73.70
2017-11-09T20:38:11.462Z,73.60
2017-11-09T20:40:38.990Z,73.70
2017-11-09T20:43:06.504Z,73.70
2017-11-09T20:45:34.027Z,73.80
2017-11-09T20:48:01.589Z,73.80
2017-11-09T20:50:29.103Z,73.90
2017-11-09T20:52:57.531Z,74.10
2017-11-09T20:55:25.029Z,74.90
2017-11-09T20:57:52.598Z,73.90
2017-11-09T21:00:20.192Z,74.00
2017-11-09T21:02:47.726Z,74.00
2017-11-09T21:05:15.268Z,73.80
2017-11-09T21:07:42.965Z,73.90
2017-11-09T21:10:11.286Z,74.00
2017-11-09T21:12:38.826Z,74.00
2017-11-09T21:15:06.354Z,74.00
2017-11-09T21:17:33.858Z,74.30
2017-11-09T21:20:01.415Z,74.40
2017-11-09T21:22:28.932Z,74.50
2017-11-09T21:24:56.418Z,74.50
2017-11-09T21:27:24.198Z,74.40
2017-11-09T21:29:51.749Z,74.30
2017-11-09T21:32:20.038Z,74.20
2017-11-09T21:34:47.684Z,74.10
2017-11-09T21:37:15.300Z,73.80
2017-11-09T21:39:43.611Z,72.90
2017-11-09T21:42:11.989Z,73.00
2017-11-09T21:44:39.533Z,73.00
2017-11-09T21:47:07.082Z,73.20
2017-11-09T21:49:34.610Z,73.40
2017-11-09T21:52:02.109Z,73.70
2017-11-09T21:54:29.633Z,74.00
2017-11-09T21:56:57.624Z,74.40
2017-11-09T21:59:25.264Z,74.60
2017-11-09T22:01:52.762Z,75.00
2017-11-09T22:04:20.250Z,75.30
2017-11-09T22:06:48.517Z,75.40
2017-11-09T22:09:16.008Z,75.40
2017-11-09T22:11:43.527Z,75.60
2017-11-09T22:14:11.010Z,75.80
2017-11-09T22:16:38.521Z,75.70
2017-11-09T22:19:06.028Z,75.90
2017-11-09T22:21:33.486Z,75.80
2017-11-09T22:24:01.177Z,75.90
2017-11-09T22:26:28.664Z,76.10
2017-11-09T22:28:56.720Z,75.70
2017-11-09T22:31:24.230Z,75.70
2017-11-09T22:33:51.712Z,75.60
2017-11-09T22:36:19.313Z,75.30
2017-11-09T22:38:46.813Z,75.10
2017-11-09T22:41:14.512Z,75.00
2017-11-09T22:43:42.021Z,74.70
2017-11-09T22:46:09.586Z,74.50
2017-11-09T22:48:37.149Z,74.60
2017-11-09T22:51:04.694Z,74.40
2017-11-09T22:53:32.982Z,74.00
2017-11-09T22:56:01.258Z,74.00
2017-11-09T22:58:28.756Z,74.00
2017-11-09T23:00:56.306Z,73.80
2017-11-09T23:03:23.804Z,73.80
2017-11-09T23:05:52.101Z,74.00
2017-11-09T23:08:19.638Z,74.00
2017-11-09T23:10:47.125Z,74.30
2017-11-09T23:13:15.401Z,74.30
2017-11-09T23:15:42.922Z,74.20
2017-11-09T23:18:10.409Z,73.90
2017-11-09T23:20:37.932Z,73.70
2017-11-09T23:23:05.440Z,73.40
2017-11-09T23:25:33.325Z,73.80
2017-11-09T23:28:02.713Z,72.80
2017-11-09T23:30:30.244Z,72.60
2017-11-09T23:32:57.725Z,72.20
2017-11-09T23:35:26.044Z,71.70
2017-11-09T23:37:53.606Z,71.70
2017-11-09T23:40:21.119Z,71.50
2017-11-09T23:42:49.389Z,71.10
2017-11-09T23:45:16.950Z,71.10
2017-11-09T23:47:46.252Z,71.40
2017-11-09T23:50:13.748Z,71.40
2017-11-09T23:52:41.235Z,71.00
2017-11-09T23:55:08.770Z,71.00
2017-11-09T23:57:36.298Z,71.00
